sensor_id;sensor_type;location;lat;lon;timestamp;P1;durP1;ratioP1;P2;durP2;ratioP2
55134;SDS011;41031;44.750;11.308;2024-03-06T00:00:12;4.43;;;1.73;;
55134;SDS011;41031;44.750;11.308;2024-03-06T00:02:40;6.90;;;1.77;;
55134;SDS011;41031;44.750;11.308;2024-03-06T00:05:07;5.30;;;1.80;;
55134;SDS011;41031;44.750;11.308;2024-03-06T00:07:35;7.47;;;1.90;;
55134;SDS011;41031;44.750;11.308;2024-03-06T00:10:02;3.50;;;1.63;;
55134;SDS011;41031;44.750;11.308;2024-03-06T00:12:32;6.67;;;2.00;;
55134;SDS011;41031;44.750;11.308;2024-03-06T00:14:59;5.93;;;1.87;;
55134;SDS011;41031;44.750;11.308;2024-03-06T00:17:26;4.87;;;1.73;;
55134;SDS011;41031;44.750;11.308;2024-03-06T00:19:54;4.70;;;1.73;;
55134;SDS011;41031;44.750;11.308;2024-03-06T00:22:21;9.10;;;2.23;;
55134;SDS011;41031;44.750;11.308;2024-03-06T00:24:50;8.60;;;2.00;;
55134;SDS011;41031;44.750;11.308;2024-03-06T00:27:18;7.27;;;1.80;;
55134;SDS011;41031;44.750;11.308;2024-03-06T00:29:45;5.60;;;1.60;;
55134;SDS011;41031;44.750;11.308;2024-03-06T00:32:12;9.07;;;2.00;;
55134;SDS011;41031;44.750;11.308;2024-03-06T00:34:39;4.47;;;1.80;;
55134;SDS011;41031;44.750;11.308;2024-03-06T00:37:07;4.97;;;1.30;;
55134;SDS011;41031;44.750;11.308;2024-03-06T00:39:34;4.30;;;1.77;;
55134;SDS011;41031;44.750;11.308;2024-03-06T00:42:02;7.13;;;1.83;;
55134;SDS011;41031;44.750;11.308;2024-03-06T00:44:29;5.93;;;2.17;;
55134;SDS011;41031;44.750;11.308;2024-03-06T00:46:56;4.87;;;1.53;;
55134;SDS011;41031;44.750;11.308;2024-03-06T00:49:24;10.17;;;1.80;;
55134;SDS011;41031;44.750;11.308;2024-03-06T00:51:51;12.13;;;1.90;;
55134;SDS011;41031;44.750;11.308;2024-03-06T00:54:18;5.83;;;1.33;;
55134;SDS011;41031;44.750;11.308;2024-03-06T00:56:45;5.13;;;1.67;;
55134;SDS011;41031;44.750;11.308;2024-03-06T00:59:12;4.33;;;1.43;;
55134;SDS011;41031;44.750;11.308;2024-03-06T01:01:39;4.63;;;1.37;;
55134;SDS011;41031;44.750;11.308;2024-03-06T01:04:07;4.20;;;1.77;;
55134;SDS011;41031;44.750;11.308;2024-03-06T01:06:34;5.27;;;1.50;;
55134;SDS011;41031;44.750;11.308;2024-03-06T01:09:01;7.87;;;1.70;;
55134;SDS011;41031;44.750;11.308;2024-03-06T01:11:29;8.30;;;1.67;;
55134;SDS011;41031;44.750;11.308;2024-03-06T01:13:56;6.93;;;1.80;;
55134;SDS011;41031;44.750;11.308;2024-03-06T01:16:23;7.20;;;2.13;;
55134;SDS011;41031;44.750;11.308;2024-03-06T01:18:50;8.13;;;2.07;;
55134;SDS011;41031;44.750;11.308;2024-03-06T01:21:17;9.17;;;1.60;;
55134;SDS011;41031;44.750;11.308;2024-03-06T01:23:45;6.20;;;2.07;;
55134;SDS011;41031;44.750;11.308;2024-03-06T01:26:12;6.57;;;1.50;;
55134;SDS011;41031;44.750;11.308;2024-03-06T01:28:39;4.53;;;1.50;;
55134;SDS011;41031;44.750;11.308;2024-03-06T01:31:06;2.67;;;1.33;;
55134;SDS011;41031;44.750;11.308;2024-03-06T01:33:34;2.00;;;1.20;;
55134;SDS011;41031;44.750;11.308;2024-03-06T01:36:01;7.63;;;1.30;;
55134;SDS011;41031;44.750;11.308;2024-03-06T01:38:28;6.93;;;1.70;;
55134;SDS011;41031;44.750;11.308;2024-03-06T01:40:55;7.53;;;1.20;;
55134;SDS011;41031;44.750;11.308;2024-03-06T01:43:23;6.60;;;1.20;;
55134;SDS011;41031;44.750;11.308;2024-03-06T01:45:52;5.80;;;1.70;;
55134;SDS011;41031;44.750;11.308;2024-03-06T01:48:27;6.27;;;1.67;;
55134;SDS011;41031;44.750;11.308;2024-03-06T01:50:56;6.13;;;1.43;;
55134;SDS011;41031;44.750;11.308;2024-03-06T01:53:27;4.23;;;1.13;;
55134;SDS011;41031;44.750;11.308;2024-03-06T01:55:56;6.27;;;1.50;;
55134;SDS011;41031;44.750;11.308;2024-03-06T01:58:24;4.93;;;1.53;;
55134;SDS011;41031;44.750;11.308;2024-03-06T02:00:51;4.20;;;1.67;;
55134;SDS011;41031;44.750;11.308;2024-03-06T02:03:20;3.50;;;1.13;;
55134;SDS011;41031;44.750;11.308;2024-03-06T02:05:51;1.70;;;1.43;;
55134;SDS011;41031;44.750;11.308;2024-03-06T02:08:19;5.53;;;1.30;;
55134;SDS011;41031;44.750;11.308;2024-03-06T02:10:46;6.77;;;1.70;;
55134;SDS011;41031;44.750;11.308;2024-03-06T02:13:14;3.90;;;1.07;;
55134;SDS011;41031;44.750;11.308;2024-03-06T02:15:41;7.10;;;1.50;;
55134;SDS011;41031;44.750;11.308;2024-03-06T02:18:10;5.40;;;1.30;;
55134;SDS011;41031;44.750;11.308;2024-03-06T02:20:38;5.33;;;1.30;;
55134;SDS011;41031;44.750;11.308;2024-03-06T02:23:08;4.23;;;1.70;;
55134;SDS011;41031;44.750;11.308;2024-03-06T02:25:36;7.63;;;1.63;;
55134;SDS011;41031;44.750;11.308;2024-03-06T02:28:03;4.30;;;1.30;;
55134;SDS011;41031;44.750;11.308;2024-03-06T02:30:32;6.23;;;1.60;;
55134;SDS011;41031;44.750;11.308;2024-03-06T02:33:04;10.23;;;1.57;;
55134;SDS011;41031;44.750;11.308;2024-03-06T02:35:33;4.40;;;1.03;;
55134;SDS011;41031;44.750;11.308;2024-03-06T02:38:05;4.73;;;1.40;;
55134;SDS011;41031;44.750;11.308;2024-03-06T02:40:32;2.43;;;0.90;;
55134;SDS011;41031;44.750;11.308;2024-03-06T02:42:59;11.33;;;1.80;;
55134;SDS011;41031;44.750;11.308;2024-03-06T02:45:26;4.93;;;1.20;;
55134;SDS011;41031;44.750;11.308;2024-03-06T02:47:54;8.17;;;1.27;;
55134;SDS011;41031;44.750;11.308;2024-03-06T02:50:21;5.73;;;1.50;;
55134;SDS011;41031;44.750;11.308;2024-03-06T02:52:49;5.00;;;1.23;;
55134;SDS011;41031;44.750;11.308;2024-03-06T02:55:18;7.03;;;2.00;;
55134;SDS011;41031;44.750;11.308;2024-03-06T02:57:46;5.63;;;1.87;;
55134;SDS011;41031;44.750;11.308;2024-03-06T03:00:13;3.23;;;1.30;;
55134;SDS011;41031;44.750;11.308;2024-03-06T03:02:42;5.13;;;1.20;;
55134;SDS011;41031;44.750;11.308;2024-03-06T03:05:10;3.97;;;1.03;;
55134;SDS011;41031;44.750;11.308;2024-03-06T03:07:37;5.03;;;1.20;;
55134;SDS011;41031;44.750;11.308;2024-03-06T03:10:04;5.37;;;0.97;;
55134;SDS011;41031;44.750;11.308;2024-03-06T03:12:32;4.73;;;1.40;;
55134;SDS011;41031;44.750;11.308;2024-03-06T03:15:00;9.27;;;1.63;;
55134;SDS011;41031;44.750;11.308;2024-03-06T03:17:27;6.23;;;0.97;;
55134;SDS011;41031;44.750;11.308;2024-03-06T03:19:54;8.03;;;2.27;;
55134;SDS011;41031;44.750;11.308;2024-03-06T03:22:21;2.23;;;0.83;;
55134;SDS011;41031;44.750;11.308;2024-03-06T03:24:49;4.77;;;1.33;;
55134;SDS011;41031;44.750;11.308;2024-03-06T03:27:16;11.47;;;1.47;;
55134;SDS011;41031;44.750;11.308;2024-03-06T03:29:44;5.73;;;1.50;;
55134;SDS011;41031;44.750;11.308;2024-03-06T03:32:11;7.30;;;1.53;;
55134;SDS011;41031;44.750;11.308;2024-03-06T03:34:41;3.50;;;1.03;;
55134;SDS011;41031;44.750;11.308;2024-03-06T03:37:12;4.20;;;1.30;;
55134;SDS011;41031;44.750;11.308;2024-03-06T03:39:43;9.30;;;1.70;;
55134;SDS011;41031;44.750;11.308;2024-03-06T03:42:13;6.87;;;1.50;;
55134;SDS011;41031;44.750;11.308;2024-03-06T03:44:43;6.67;;;1.70;;
55134;SDS011;41031;44.750;11.308;2024-03-06T03:47:12;3.30;;;1.43;;
55134;SDS011;41031;44.750;11.308;2024-03-06T03:49:39;6.33;;;1.17;;
55134;SDS011;41031;44.750;11.308;2024-03-06T03:52:06;7.13;;;1.37;;
55134;SDS011;41031;44.750;11.308;2024-03-06T03:54:34;7.30;;;1.30;;
55134;SDS011;41031;44.750;11.308;2024-03-06T03:57:01;2.30;;;1.20;;
55134;SDS011;41031;44.750;11.308;2024-03-06T03:59:31;3.43;;;1.77;;
55134;SDS011;41031;44.750;11.308;2024-03-06T04:02:00;6.60;;;1.30;;
55134;SDS011;41031;44.750;11.308;2024-03-06T04:04:29;3.70;;;1.53;;
55134;SDS011;41031;44.750;11.308;2024-03-06T04:06:59;3.20;;;1.20;;
55134;SDS011;41031;44.750;11.308;2024-03-06T04:09:29;4.63;;;1.33;;
55134;SDS011;41031;44.750;11.308;2024-03-06T04:11:56;3.60;;;1.23;;
55134;SDS011;41031;44.750;11.308;2024-03-06T04:14:26;6.13;;;0.97;;
55134;SDS011;41031;44.750;11.308;2024-03-06T04:16:56;7.63;;;1.03;;
55134;SDS011;41031;44.750;11.308;2024-03-06T04:19:24;6.93;;;1.23;;
55134;SDS011;41031;44.750;11.308;2024-03-06T04:21:54;3.67;;;1.40;;
55134;SDS011;41031;44.750;11.308;2024-03-06T04:24:22;10.17;;;1.60;;
55134;SDS011;41031;44.750;11.308;2024-03-06T04:26:50;3.20;;;1.03;;
55134;SDS011;41031;44.750;11.308;2024-03-06T04:29:19;5.57;;;1.27;;
55134;SDS011;41031;44.750;11.308;2024-03-06T04:31:47;5.17;;;1.37;;
55134;SDS011;41031;44.750;11.308;2024-03-06T04:34:17;3.70;;;1.30;;
55134;SDS011;41031;44.750;11.308;2024-03-06T04:36:47;9.00;;;1.10;;
55134;SDS011;41031;44.750;11.308;2024-03-06T04:39:14;7.70;;;1.47;;
55134;SDS011;41031;44.750;11.308;2024-03-06T04:41:41;4.27;;;1.30;;
55134;SDS011;41031;44.750;11.308;2024-03-06T04:44:08;4.20;;;0.97;;
55134;SDS011;41031;44.750;11.308;2024-03-06T04:46:35;3.30;;;1.30;;
55134;SDS011;41031;44.750;11.308;2024-03-06T04:49:03;4.83;;;1.43;;
55134;SDS011;41031;44.750;11.308;2024-03-06T04:51:30;2.67;;;0.80;;
55134;SDS011;41031;44.750;11.308;2024-03-06T04:53:57;4.03;;;0.90;;
55134;SDS011;41031;44.750;11.308;2024-03-06T04:56:24;4.07;;;1.23;;
55134;SDS011;41031;44.750;11.308;2024-03-06T04:58:51;2.27;;;1.00;;
55134;SDS011;41031;44.750;11.308;2024-03-06T05:01:19;3.97;;;1.17;;
55134;SDS011;41031;44.750;11.308;2024-03-06T05:03:46;5.83;;;2.57;;
55134;SDS011;41031;44.750;11.308;2024-03-06T05:06:30;5.13;;;1.30;;
55134;SDS011;41031;44.750;11.308;2024-03-06T05:09:14;5.90;;;1.17;;
55134;SDS011;41031;44.750;11.308;2024-03-06T05:11:59;7.80;;;1.60;;
55134;SDS011;41031;44.750;11.308;2024-03-06T05:14:44;5.67;;;1.30;;
55134;SDS011;41031;44.750;11.308;2024-03-06T05:17:28;4.03;;;1.20;;
55134;SDS011;41031;44.750;11.308;2024-03-06T05:20:12;3.87;;;1.13;;
55134;SDS011;41031;44.750;11.308;2024-03-06T05:22:58;7.37;;;1.43;;
55134;SDS011;41031;44.750;11.308;2024-03-06T05:25:43;1.97;;;1.23;;
55134;SDS011;41031;44.750;11.308;2024-03-06T05:28:28;2.93;;;0.83;;
55134;SDS011;41031;44.750;11.308;2024-03-06T05:31:19;5.50;;;1.30;;
55134;SDS011;41031;44.750;11.308;2024-03-06T05:34:04;7.70;;;1.80;;
55134;SDS011;41031;44.750;11.308;2024-03-06T05:36:49;4.37;;;1.47;;
55134;SDS011;41031;44.750;11.308;2024-03-06T05:39:34;4.67;;;1.63;;
55134;SDS011;41031;44.750;11.308;2024-03-06T05:42:19;4.30;;;1.20;;
55134;SDS011;41031;44.750;11.308;2024-03-06T05:45:03;8.00;;;2.47;;
55134;SDS011;41031;44.750;11.308;2024-03-06T05:47:54;11.57;;;2.80;;
55134;SDS011;41031;44.750;11.308;2024-03-06T05:50:38;9.90;;;4.60;;
55134;SDS011;41031;44.750;11.308;2024-03-06T05:53:23;8.07;;;4.07;;
55134;SDS011;41031;44.750;11.308;2024-03-06T05:56:07;8.73;;;5.67;;
55134;SDS011;41031;44.750;11.308;2024-03-06T05:58:52;8.47;;;5.50;;
55134;SDS011;41031;44.750;11.308;2024-03-06T06:01:21;12.80;;;5.63;;
55134;SDS011;41031;44.750;11.308;2024-03-06T06:03:48;8.80;;;5.90;;
55134;SDS011;41031;44.750;11.308;2024-03-06T06:06:16;21.90;;;7.13;;
55134;SDS011;41031;44.750;11.308;2024-03-06T06:08:45;10.97;;;7.47;;
55134;SDS011;41031;44.750;11.308;2024-03-06T06:11:12;10.40;;;7.10;;
55134;SDS011;41031;44.750;11.308;2024-03-06T06:13:39;12.33;;;6.97;;
55134;SDS011;41031;44.750;11.308;2024-03-06T06:16:06;11.37;;;7.00;;
55134;SDS011;41031;44.750;11.308;2024-03-06T06:18:34;11.10;;;7.70;;
55134;SDS011;41031;44.750;11.308;2024-03-06T06:21:01;9.57;;;7.57;;
55134;SDS011;41031;44.750;11.308;2024-03-06T06:23:30;10.07;;;7.07;;
55134;SDS011;41031;44.750;11.308;2024-03-06T06:25:57;8.47;;;6.67;;
55134;SDS011;41031;44.750;11.308;2024-03-06T06:28:24;11.87;;;7.97;;
55134;SDS011;41031;44.750;11.308;2024-03-06T06:30:52;14.07;;;8.57;;
55134;SDS011;41031;44.750;11.308;2024-03-06T06:33:19;14.27;;;9.13;;
55134;SDS011;41031;44.750;11.308;2024-03-06T06:35:47;9.87;;;8.07;;
55134;SDS011;41031;44.750;11.308;2024-03-06T06:38:14;12.17;;;9.23;;
55134;SDS011;41031;44.750;11.308;2024-03-06T06:40:41;10.90;;;9.17;;
55134;SDS011;41031;44.750;11.308;2024-03-06T06:43:09;13.40;;;9.33;;
55134;SDS011;41031;44.750;11.308;2024-03-06T06:45:37;13.07;;;9.33;;
55134;SDS011;41031;44.750;11.308;2024-03-06T06:48:04;13.43;;;9.73;;
55134;SDS011;41031;44.750;11.308;2024-03-06T06:50:32;14.87;;;10.70;;
55134;SDS011;41031;44.750;11.308;2024-03-06T06:53:00;14.73;;;10.37;;
55134;SDS011;41031;44.750;11.308;2024-03-06T06:55:27;12.20;;;9.30;;
55134;SDS011;41031;44.750;11.308;2024-03-06T06:57:54;13.50;;;10.40;;
55134;SDS011;41031;44.750;11.308;2024-03-06T07:00:23;13.50;;;10.77;;
55134;SDS011;41031;44.750;11.308;2024-03-06T07:02:51;15.57;;;11.60;;
55134;SDS011;41031;44.750;11.308;2024-03-06T07:05:18;17.67;;;12.17;;
55134;SDS011;41031;44.750;11.308;2024-03-06T07:07:45;15.70;;;12.03;;
55134;SDS011;41031;44.750;11.308;2024-03-06T07:10:15;15.67;;;11.37;;
55134;SDS011;41031;44.750;11.308;2024-03-06T07:12:42;18.33;;;13.03;;
55134;SDS011;41031;44.750;11.308;2024-03-06T07:15:09;16.57;;;12.23;;
55134;SDS011;41031;44.750;11.308;2024-03-06T07:17:36;16.20;;;11.47;;
55134;SDS011;41031;44.750;11.308;2024-03-06T07:20:03;13.90;;;10.50;;
55134;SDS011;41031;44.750;11.308;2024-03-06T07:22:35;12.63;;;11.33;;
55134;SDS011;41031;44.750;11.308;2024-03-06T07:25:02;15.43;;;10.93;;
55134;SDS011;41031;44.750;11.308;2024-03-06T07:27:29;13.20;;;10.60;;
55134;SDS011;41031;44.750;11.308;2024-03-06T07:29:56;14.23;;;11.30;;
55134;SDS011;41031;44.750;11.308;2024-03-06T07:32:23;12.10;;;10.70;;
55134;SDS011;41031;44.750;11.308;2024-03-06T07:34:51;15.47;;;10.87;;
55134;SDS011;41031;44.750;11.308;2024-03-06T07:37:18;15.47;;;11.20;;
55134;SDS011;41031;44.750;11.308;2024-03-06T07:39:45;21.17;;;13.27;;
55134;SDS011;41031;44.750;11.308;2024-03-06T07:42:16;17.93;;;13.93;;
55134;SDS011;41031;44.750;11.308;2024-03-06T07:44:44;21.90;;;14.27;;
55134;SDS011;41031;44.750;11.308;2024-03-06T07:47:11;17.57;;;14.07;;
55134;SDS011;41031;44.750;11.308;2024-03-06T07:49:41;18.87;;;13.87;;
55134;SDS011;41031;44.750;11.308;2024-03-06T07:52:08;23.27;;;16.37;;
55134;SDS011;41031;44.750;11.308;2024-03-06T07:54:35;21.50;;;14.23;;
55134;SDS011;41031;44.750;11.308;2024-03-06T07:57:02;18.80;;;13.30;;
55134;SDS011;41031;44.750;11.308;2024-03-06T07:59:30;15.07;;;11.03;;
55134;SDS011;41031;44.750;11.308;2024-03-06T08:01:57;13.20;;;11.20;;
55134;SDS011;41031;44.750;11.308;2024-03-06T08:04:24;12.60;;;9.90;;
55134;SDS011;41031;44.750;11.308;2024-03-06T08:06:51;12.00;;;9.67;;
55134;SDS011;41031;44.750;11.308;2024-03-06T08:09:18;11.57;;;10.00;;
55134;SDS011;41031;44.750;11.308;2024-03-06T08:11:46;11.23;;;9.20;;
55134;SDS011;41031;44.750;11.308;2024-03-06T08:14:13;13.63;;;9.67;;
55134;SDS011;41031;44.750;11.308;2024-03-06T08:16:41;10.40;;;8.70;;
55134;SDS011;41031;44.750;11.308;2024-03-06T08:19:08;10.37;;;9.03;;
55134;SDS011;41031;44.750;11.308;2024-03-06T08:21:36;8.93;;;8.03;;
55134;SDS011;41031;44.750;11.308;2024-03-06T08:24:03;14.60;;;8.67;;
55134;SDS011;41031;44.750;11.308;2024-03-06T08:26:30;10.80;;;9.17;;
55134;SDS011;41031;44.750;11.308;2024-03-06T08:28:58;9.70;;;8.53;;
55134;SDS011;41031;44.750;11.308;2024-03-06T08:31:25;9.37;;;8.10;;
55134;SDS011;41031;44.750;11.308;2024-03-06T08:33:52;8.70;;;7.17;;
55134;SDS011;41031;44.750;11.308;2024-03-06T08:36:19;8.17;;;7.30;;
55134;SDS011;41031;44.750;11.308;2024-03-06T08:38:47;10.00;;;8.43;;
55134;SDS011;41031;44.750;11.308;2024-03-06T08:41:14;8.83;;;7.60;;
55134;SDS011;41031;44.750;11.308;2024-03-06T08:43:42;9.77;;;8.60;;
55134;SDS011;41031;44.750;11.308;2024-03-06T08:46:09;9.57;;;8.17;;
55134;SDS011;41031;44.750;11.308;2024-03-06T08:48:36;9.87;;;8.83;;
55134;SDS011;41031;44.750;11.308;2024-03-06T08:51:04;9.17;;;7.87;;
55134;SDS011;41031;44.750;11.308;2024-03-06T08:53:37;10.40;;;8.47;;
55134;SDS011;41031;44.750;11.308;2024-03-06T08:56:05;12.13;;;8.20;;
55134;SDS011;41031;44.750;11.308;2024-03-06T08:58:33;9.00;;;7.23;;
55134;SDS011;41031;44.750;11.308;2024-03-06T09:01:00;8.90;;;8.00;;
55134;SDS011;41031;44.750;11.308;2024-03-06T09:03:27;10.83;;;8.23;;
55134;SDS011;41031;44.750;11.308;2024-03-06T09:05:54;8.70;;;6.93;;
55134;SDS011;41031;44.750;11.308;2024-03-06T09:08:22;8.83;;;7.87;;
55134;SDS011;41031;44.750;11.308;2024-03-06T09:10:49;8.73;;;7.03;;
55134;SDS011;41031;44.750;11.308;2024-03-06T09:13:16;9.10;;;7.20;;
55134;SDS011;41031;44.750;11.308;2024-03-06T09:15:43;11.60;;;7.60;;
55134;SDS011;41031;44.750;11.308;2024-03-06T09:18:10;12.27;;;6.23;;
55134;SDS011;41031;44.750;11.308;2024-03-06T09:20:38;7.30;;;6.50;;
55134;SDS011;41031;44.750;11.308;2024-03-06T09:23:05;9.33;;;6.27;;
55134;SDS011;41031;44.750;11.308;2024-03-06T09:25:32;8.67;;;7.67;;
55134;SDS011;41031;44.750;11.308;2024-03-06T09:27:59;6.73;;;5.07;;
55134;SDS011;41031;44.750;11.308;2024-03-06T09:30:31;7.67;;;6.43;;
55134;SDS011;41031;44.750;11.308;2024-03-06T09:32:58;9.50;;;7.27;;
55134;SDS011;41031;44.750;11.308;2024-03-06T09:35:25;8.87;;;7.63;;
55134;SDS011;41031;44.750;11.308;2024-03-06T09:37:52;10.50;;;6.63;;
55134;SDS011;41031;44.750;11.308;2024-03-06T09:40:21;7.63;;;5.63;;
55134;SDS011;41031;44.750;11.308;2024-03-06T09:42:51;6.43;;;5.83;;
55134;SDS011;41031;44.750;11.308;2024-03-06T09:45:19;7.73;;;5.57;;
55134;SDS011;41031;44.750;11.308;2024-03-06T09:47:47;9.27;;;5.97;;
55134;SDS011;41031;44.750;11.308;2024-03-06T09:50:17;7.17;;;5.93;;
55134;SDS011;41031;44.750;11.308;2024-03-06T09:52:51;11.20;;;7.00;;
55134;SDS011;41031;44.750;11.308;2024-03-06T09:55:20;8.77;;;6.00;;
55134;SDS011;41031;44.750;11.308;2024-03-06T09:57:48;10.97;;;6.30;;
55134;SDS011;41031;44.750;11.308;2024-03-06T10:00:17;10.60;;;6.77;;
55134;SDS011;41031;44.750;11.308;2024-03-06T10:02:59;9.93;;;5.87;;
55134;SDS011;41031;44.750;11.308;2024-03-06T10:05:27;7.87;;;6.80;;
55134;SDS011;41031;44.750;11.308;2024-03-06T10:07:55;5.87;;;5.27;;
55134;SDS011;41031;44.750;11.308;2024-03-06T10:10:22;8.63;;;5.60;;
55134;SDS011;41031;44.750;11.308;2024-03-06T10:12:49;9.00;;;6.53;;
55134;SDS011;41031;44.750;11.308;2024-03-06T10:15:17;7.67;;;5.33;;
55134;SDS011;41031;44.750;11.308;2024-03-06T10:17:44;6.57;;;5.47;;
55134;SDS011;41031;44.750;11.308;2024-03-06T10:20:19;6.93;;;5.17;;
55134;SDS011;41031;44.750;11.308;2024-03-06T10:22:51;7.63;;;5.80;;
55134;SDS011;41031;44.750;11.308;2024-03-06T10:25:24;9.70;;;5.00;;
55134;SDS011;41031;44.750;11.308;2024-03-06T10:30:40;7.57;;;5.27;;
55134;SDS011;41031;44.750;11.308;2024-03-06T10:33:12;7.53;;;5.30;;
55134;SDS011;41031;44.750;11.308;2024-03-06T10:35:40;6.53;;;4.43;;
55134;SDS011;41031;44.750;11.308;2024-03-06T10:38:12;7.73;;;4.60;;
55134;SDS011;41031;44.750;11.308;2024-03-06T10:40:40;8.73;;;5.17;;
55134;SDS011;41031;44.750;11.308;2024-03-06T10:43:08;9.20;;;5.10;;
55134;SDS011;41031;44.750;11.308;2024-03-06T10:48:32;6.40;;;3.60;;
55134;SDS011;41031;44.750;11.308;2024-03-06T10:51:01;5.67;;;2.20;;
55134;SDS011;41031;44.750;11.308;2024-03-06T10:53:30;3.70;;;1.90;;
55134;SDS011;41031;44.750;11.308;2024-03-06T10:55:58;4.43;;;2.67;;
55134;SDS011;41031;44.750;11.308;2024-03-06T10:58:26;4.57;;;2.53;;
55134;SDS011;41031;44.750;11.308;2024-03-06T11:00:56;2.93;;;2.23;;
55134;SDS011;41031;44.750;11.308;2024-03-06T11:03:24;4.30;;;2.13;;
55134;SDS011;41031;44.750;11.308;2024-03-06T11:05:52;6.30;;;2.90;;
55134;SDS011;41031;44.750;11.308;2024-03-06T11:08:19;6.37;;;2.93;;
55134;SDS011;41031;44.750;11.308;2024-03-06T11:10:48;3.77;;;2.30;;
55134;SDS011;41031;44.750;11.308;2024-03-06T11:15:53;2.13;;;1.90;;
55134;SDS011;41031;44.750;11.308;2024-03-06T11:23:30;4.67;;;2.77;;
55134;SDS011;41031;44.750;11.308;2024-03-06T11:26:04;5.30;;;3.13;;
55134;SDS011;41031;44.750;11.308;2024-03-06T11:28:33;8.30;;;3.50;;
55134;SDS011;41031;44.750;11.308;2024-03-06T11:33:38;4.87;;;2.87;;
55134;SDS011;41031;44.750;11.308;2024-03-06T11:36:26;2.93;;;2.27;;
55134;SDS011;41031;44.750;11.308;2024-03-06T11:38:57;6.73;;;3.07;;
55134;SDS011;41031;44.750;11.308;2024-03-06T11:41:26;4.97;;;2.30;;
55134;SDS011;41031;44.750;11.308;2024-03-06T11:44:01;3.93;;;1.80;;
55134;SDS011;41031;44.750;11.308;2024-03-06T11:46:44;3.40;;;2.13;;
55134;SDS011;41031;44.750;11.308;2024-03-06T11:49:14;5.10;;;2.67;;
55134;SDS011;41031;44.750;11.308;2024-03-06T11:51:47;3.87;;;2.20;;
55134;SDS011;41031;44.750;11.308;2024-03-06T11:54:15;5.77;;;2.33;;
55134;SDS011;41031;44.750;11.308;2024-03-06T11:56:45;5.73;;;2.10;;
55134;SDS011;41031;44.750;11.308;2024-03-06T11:59:17;2.63;;;1.43;;
55134;SDS011;41031;44.750;11.308;2024-03-06T12:01:47;1.50;;;1.23;;
55134;SDS011;41031;44.750;11.308;2024-03-06T12:04:14;5.77;;;1.37;;
55134;SDS011;41031;44.750;11.308;2024-03-06T12:06:41;3.37;;;1.30;;
55134;SDS011;41031;44.750;11.308;2024-03-06T12:09:08;1.20;;;1.10;;
55134;SDS011;41031;44.750;11.308;2024-03-06T12:11:37;2.07;;;1.27;;
55134;SDS011;41031;44.750;11.308;2024-03-06T12:14:05;3.83;;;1.50;;
55134;SDS011;41031;44.750;11.308;2024-03-06T12:16:32;3.27;;;1.30;;
55134;SDS011;41031;44.750;11.308;2024-03-06T12:18:59;4.40;;;2.00;;
55134;SDS011;41031;44.750;11.308;2024-03-06T12:21:33;3.70;;;1.80;;
55134;SDS011;41031;44.750;11.308;2024-03-06T12:24:04;2.87;;;1.70;;
55134;SDS011;41031;44.750;11.308;2024-03-06T12:26:33;6.67;;;2.40;;
55134;SDS011;41031;44.750;11.308;2024-03-06T12:29:06;6.80;;;2.43;;
55134;SDS011;41031;44.750;11.308;2024-03-06T12:31:36;4.13;;;2.00;;
55134;SDS011;41031;44.750;11.308;2024-03-06T12:34:04;2.63;;;2.20;;
55134;SDS011;41031;44.750;11.308;2024-03-06T12:36:32;3.77;;;2.20;;
55134;SDS011;41031;44.750;11.308;2024-03-06T12:39:02;4.43;;;2.10;;
55134;SDS011;41031;44.750;11.308;2024-03-06T12:41:30;2.83;;;1.90;;
55134;SDS011;41031;44.750;11.308;2024-03-06T12:43:57;3.90;;;1.60;;
55134;SDS011;41031;44.750;11.308;2024-03-06T12:46:24;3.43;;;1.50;;
55134;SDS011;41031;44.750;11.308;2024-03-06T12:48:53;3.17;;;2.43;;
55134;SDS011;41031;44.750;11.308;2024-03-06T12:51:20;9.97;;;4.53;;
55134;SDS011;41031;44.750;11.308;2024-03-06T12:53:47;6.53;;;3.63;;
55134;SDS011;41031;44.750;11.308;2024-03-06T12:56:15;8.07;;;3.00;;
55134;SDS011;41031;44.750;11.308;2024-03-06T12:58:42;9.90;;;3.93;;
55134;SDS011;41031;44.750;11.308;2024-03-06T13:01:09;8.17;;;3.87;;
55134;SDS011;41031;44.750;11.308;2024-03-06T13:03:37;5.70;;;3.17;;
55134;SDS011;41031;44.750;11.308;2024-03-06T13:06:04;5.70;;;3.50;;
55134;SDS011;41031;44.750;11.308;2024-03-06T13:08:32;6.10;;;3.50;;
55134;SDS011;41031;44.750;11.308;2024-03-06T13:10:59;4.63;;;2.50;;
55134;SDS011;41031;44.750;11.308;2024-03-06T13:13:27;8.50;;;4.20;;
55134;SDS011;41031;44.750;11.308;2024-03-06T13:15:59;5.97;;;3.73;;
55134;SDS011;41031;44.750;11.308;2024-03-06T13:18:31;5.33;;;2.93;;
55134;SDS011;41031;44.750;11.308;2024-03-06T13:20:58;3.67;;;2.20;;
55134;SDS011;41031;44.750;11.308;2024-03-06T13:23:27;9.50;;;3.37;;
55134;SDS011;41031;44.750;11.308;2024-03-06T13:25:54;11.60;;;3.03;;
55134;SDS011;41031;44.750;11.308;2024-03-06T13:28:21;2.90;;;1.30;;
55134;SDS011;41031;44.750;11.308;2024-03-06T13:30:48;2.10;;;1.07;;
55134;SDS011;41031;44.750;11.308;2024-03-06T13:33:16;3.37;;;1.20;;
55134;SDS011;41031;44.750;11.308;2024-03-06T13:35:44;5.20;;;1.03;;
55134;SDS011;41031;44.750;11.308;2024-03-06T13:38:11;3.17;;;0.80;;
55134;SDS011;41031;44.750;11.308;2024-03-06T13:40:38;3.87;;;1.00;;
55134;SDS011;41031;44.750;11.308;2024-03-06T13:43:06;3.37;;;1.83;;
55134;SDS011;41031;44.750;11.308;2024-03-06T13:45:34;3.80;;;1.87;;
55134;SDS011;41031;44.750;11.308;2024-03-06T13:48:01;4.20;;;1.57;;
55134;SDS011;41031;44.750;11.308;2024-03-06T13:50:29;2.30;;;1.30;;
55134;SDS011;41031;44.750;11.308;2024-03-06T13:52:57;4.67;;;2.17;;
55134;SDS011;41031;44.750;11.308;2024-03-06T13:55:24;4.83;;;2.60;;
55134;SDS011;41031;44.750;11.308;2024-03-06T13:57:52;7.03;;;1.90;;
55134;SDS011;41031;44.750;11.308;2024-03-06T14:00:19;3.73;;;2.30;;
55134;SDS011;41031;44.750;11.308;2024-03-06T14:02:46;5.93;;;2.20;;
55134;SDS011;41031;44.750;11.308;2024-03-06T14:05:14;2.80;;;1.90;;
55134;SDS011;41031;44.750;11.308;2024-03-06T14:07:42;4.13;;;2.40;;
55134;SDS011;41031;44.750;11.308;2024-03-06T14:10:09;4.37;;;2.80;;
55134;SDS011;41031;44.750;11.308;2024-03-06T14:12:37;6.13;;;2.47;;
55134;SDS011;41031;44.750;11.308;2024-03-06T14:15:05;5.80;;;2.70;;
55134;SDS011;41031;44.750;11.308;2024-03-06T14:17:35;3.90;;;2.20;;
55134;SDS011;41031;44.750;11.308;2024-03-06T14:20:03;4.40;;;2.40;;
55134;SDS011;41031;44.750;11.308;2024-03-06T14:22:30;4.43;;;2.50;;
55134;SDS011;41031;44.750;11.308;2024-03-06T14:24:57;6.90;;;2.93;;
55134;SDS011;41031;44.750;11.308;2024-03-06T14:27:24;5.47;;;2.80;;
55134;SDS011;41031;44.750;11.308;2024-03-06T14:29:51;4.30;;;2.43;;
55134;SDS011;41031;44.750;11.308;2024-03-06T14:32:20;4.73;;;1.77;;
55134;SDS011;41031;44.750;11.308;2024-03-06T14:34:48;3.57;;;1.90;;
55134;SDS011;41031;44.750;11.308;2024-03-06T14:37:16;7.20;;;2.03;;
55134;SDS011;41031;44.750;11.308;2024-03-06T14:39:43;5.10;;;1.90;;
55134;SDS011;41031;44.750;11.308;2024-03-06T14:42:11;4.73;;;1.70;;
55134;SDS011;41031;44.750;11.308;2024-03-06T14:44:39;5.27;;;1.90;;
55134;SDS011;41031;44.750;11.308;2024-03-06T14:47:06;5.67;;;1.87;;
55134;SDS011;41031;44.750;11.308;2024-03-06T14:49:33;8.03;;;2.07;;
55134;SDS011;41031;44.750;11.308;2024-03-06T14:52:01;5.10;;;2.00;;
55134;SDS011;41031;44.750;11.308;2024-03-06T14:54:31;5.13;;;1.50;;
55134;SDS011;41031;44.750;11.308;2024-03-06T14:56:59;3.83;;;2.03;;